Flight Track Log - Related Links

Times and Time Zones

All times are in EDT time to prevent confusion due to time zone crossing. See the FSR411 flight status page for this flight to view local times or setup timezone preferences in your user account.

Time Position Orientation Groundspeed Altitude Reporting Facility
EDT Latitude Longitude Course Direction KTS MPH feet Rate Location/Type
Mon 11:04:42 PM 38.1586 -92.4461 56° Northeast 230 265 6,200  Level Kansas City Center
Mon 11:05:43 PM 38.1953 -92.3678 59° Northeast 248 285 9,900 3,492 Climbing Kansas City Center
Mon 11:06:44 PM 38.2403 -92.2769 58° Northeast 294 338 13,300 3,463 Climbing Kansas City Center
Mon 11:07:46 PM 38.2914 -92.1706 59° Northeast 336 387 17,000 2,878 Climbing Kansas City Center
Mon 11:08:47 PM 38.3428 -92.0617 59° Northeast 351 404 19,200 2,066 Climbing Kansas City Center
Mon 11:09:48 PM 38.3967 -91.9475 59° Northeast 366 421 21,200 1,707 Climbing Kansas City Center
Mon 11:10:50 PM 38.4561 -91.8267 58° Northeast 384 442 22,700 878 Climbing Kansas City Center
Mon 11:11:51 PM 38.5208 -91.6869 59° Northeast 428 493 23,000 148 Climbing Kansas City Center
Mon 11:12:52 PM 38.5889 -91.5414 59° Northeast 456 525 23,000  Level Kansas City Center
Mon 11:13:54 PM 38.6567 -91.3964 59° Northeast 469 540 23,000  Level Kansas City Center
Mon 11:14:55 PM 38.7206 -91.2611 59° Northeast 458 527 23,000  Level Kansas City Center
Mon 11:15:56 PM 38.7328 -91.1142 84° East 449 517 23,000  Level Kansas City Center
Mon 11:16:58 PM 38.7153 -90.9650 99° East 451 519 23,000  Level Kansas City Center
Mon 11:17:59 PM 38.7750 -90.8228 62° Northeast 451 519 23,000  Level Kansas City Center
Mon 11:19:00 PM 38.8575 -90.6694 55° Northeast 439 505 23,000  Level Kansas City Center
Mon 11:20:01 PM 38.9206 -90.5458 57° Northeast 426 490 23,000 -293 Level Kansas City Center
Mon 11:21:03 PM 38.9861 -90.4189 56° Northeast 421 484 22,400 -878 Descending Kansas City Center
Mon 11:22:04 PM 39.0478 -90.2969 57° Northeast 410 472 21,200 -689 Descending Kansas City Center
Mon 11:23:05 PM 39.1064 -90.1800 57° Northeast 394 453 21,000 -98 Descending Kansas City Center
Mon 11:24:07 PM 39.1658 -90.0631 57° Northeast 390 449 21,000  Level Kansas City Center
Mon 11:25:08 PM 39.2239 -89.9472 57° Northeast 387 445 21,000  Level Kansas City Center
Mon 11:26:09 PM 39.2814 -89.8322 57° Northeast 384 442 21,000  Level Kansas City Center
Mon 11:27:11 PM 39.3400 -89.7167 57° Northeast 383 441 21,000 -244 Level Kansas City Center
Mon 11:28:12 PM 39.3986 -89.5978 57° Northeast 389 448 20,500 -984 Descending Kansas City Center
Mon 11:29:13 PM 39.4556 -89.4811 58° Northeast 387 445 19,000 -1,475 Descending Kansas City Center
Mon 11:30:14 PM 39.5100 -89.3714 57° Northeast 372 428 17,500 -1,561 Descending Kansas City Center
Mon 11:31:16 PM 39.5694 -89.2511 57° Northeast 364 419 15,800 -1,561 Descending Kansas City Center
Mon 11:32:17 PM 39.6197 -89.1475 58° Northeast 349 402 14,300 -1,488 Descending Kansas City Center
Mon 11:33:17 PM 39.6692 -89.0483 57° Northeast 336 387 12,800 -1,537 Descending Kansas City Center
Mon 11:34:18 PM 39.7178 -88.9492 57° Northeast 329 379 11,200 -1,525 Descending Kansas City Center
Mon 11:35:19 PM 39.7758 -88.8672 47° Northeast 313 360 9,700 -1,475 Descending Kansas City Center
Mon 11:36:20 PM 39.8272 -88.7956 47° Northeast 283 326 8,200 -1,632 Descending Kansas City Center
Mon 11:37:24 PM 39.8844 -88.7106 49° Northeast 272 313 6,300 -1,632 Descending Chicago Center
Mon 11:38:25 PM 39.9358 -88.6364 48° Northeast 272 313 4,800 -1,377 Descending Chicago Center
Mon 11:39:26 PM 39.9864 -88.5631 48° Northeast 273 314 3,500 -885 Descending Chicago Center
Mon 11:40:27 PM 40.0358 -88.4944 47° Northeast 268 308 3,000 -246 Descending Chicago Center
Mon 11:41:28 PM 40.0708 -88.4394 50° Northeast 232 267 3,000 -246 Level Chicago Center
Mon 11:42:29 PM 40.0942 -88.3872 60° Northeast 175 201 2,500 -541 Descending Chicago Center
Mon 11:43:30 PM 40.0967 -88.3225 87° East 168 193 1,900 -541 Descending Chicago Center
Mon 11:44:31 PM 40.0633 -88.2906 144° Southeast 155 178 1,400 -492 Descending Chicago Center

Login

Don't have an account? Register now (free) for customized features, flight alerts, and more!